sensor_id;sensor_type;location;lat;lon;timestamp;noise_LAeq;noise_LA_min;noise_LA_max;noise_LA01;noise_LA95
52872;Laerm;40124;52.198;9.902;2023-09-08T00:01:28;42.62;39.58;46.69;;
52872;Laerm;40124;52.198;9.902;2023-09-08T00:03:53;43.12;39.92;51.80;;
52872;Laerm;40124;52.198;9.902;2023-09-08T00:06:18;43.24;40.33;46.91;;
52872;Laerm;40124;52.198;9.902;2023-09-08T00:08:44;43.28;40.53;50.11;;
52872;Laerm;40124;52.198;9.902;2023-09-08T00:11:09;60.89;40.98;78.64;;
52872;Laerm;40124;52.198;9.902;2023-09-08T00:13:34;43.18;40.53;49.58;;
52872;Laerm;40124;52.198;9.902;2023-09-08T00:15:59;68.11;40.89;86.92;;
52872;Laerm;40124;52.198;9.902;2023-09-08T00:18:24;46.09;40.53;61.61;;
52872;Laerm;40124;52.198;9.902;2023-09-08T00:20:50;43.25;40.62;47.63;;
52872;Laerm;40124;52.198;9.902;2023-09-08T00:23:15;43.01;40.03;46.97;;
52872;Laerm;40124;52.198;9.902;2023-09-08T00:25:40;42.86;40.23;47.24;;
52872;Laerm;40124;52.198;9.902;2023-09-08T00:28:05;43.25;40.23;47.24;;
52872;Laerm;40124;52.198;9.902;2023-09-08T00:30:31;42.99;39.81;52.38;;
52872;Laerm;40124;52.198;9.902;2023-09-08T00:32:56;59.29;41.14;78.85;;
52872;Laerm;40124;52.198;9.902;2023-09-08T00:35:21;42.76;39.70;49.47;;
52872;Laerm;40124;52.198;9.902;2023-09-08T00:37:46;42.90;40.03;46.64;;
52872;Laerm;40124;52.198;9.902;2023-09-08T00:40:12;57.27;40.03;76.42;;
52872;Laerm;40124;52.198;9.902;2023-09-08T00:42:37;43.05;40.33;47.57;;
52872;Laerm;40124;52.198;9.902;2023-09-08T00:45:02;42.51;39.58;46.43;;
52872;Laerm;40124;52.198;9.902;2023-09-08T00:47:28;42.76;39.34;47.28;;
52872;Laerm;40124;52.198;9.902;2023-09-08T00:49:53;43.01;39.70;46.52;;
52872;Laerm;40124;52.198;9.902;2023-09-08T00:52:18;61.14;40.62;81.45;;
52872;Laerm;40124;52.198;9.902;2023-09-08T00:54:43;68.77;40.89;88.86;;
52872;Laerm;40124;52.198;9.902;2023-09-08T00:57:09;59.01;39.34;79.66;;
52872;Laerm;40124;52.198;9.902;2023-09-08T00:59:34;61.85;39.70;81.78;;
52872;Laerm;40124;52.198;9.902;2023-09-08T01:01:59;42.64;39.58;46.80;;
52872;Laerm;40124;52.198;9.902;2023-09-08T01:04:25;42.49;39.21;47.04;;
52872;Laerm;40124;52.198;9.902;2023-09-08T01:06:50;42.52;38.81;49.43;;
52872;Laerm;40124;52.198;9.902;2023-09-08T01:09:15;42.72;39.58;47.08;;
52872;Laerm;40124;52.198;9.902;2023-09-08T01:11:41;42.86;39.92;46.91;;
52872;Laerm;40124;52.198;9.902;2023-09-08T01:14:07;43.02;40.53;47.74;;
52872;Laerm;40124;52.198;9.902;2023-09-08T01:16:33;43.18;39.46;46.93;;
52872;Laerm;40124;52.198;9.902;2023-09-08T01:18:58;43.21;40.33;46.59;;
52872;Laerm;40124;52.198;9.902;2023-09-08T01:21:35;56.42;40.23;78.02;;
52872;Laerm;40124;52.198;9.902;2023-09-08T01:26:40;57.03;40.13;78.85;;
52872;Laerm;40124;52.198;9.902;2023-09-08T01:29:06;43.41;38.52;47.96;;
52872;Laerm;40124;52.198;9.902;2023-09-08T01:31:31;43.67;41.06;46.93;;
52872;Laerm;40124;52.198;9.902;2023-09-08T01:33:57;59.99;40.98;81.11;;
52872;Laerm;40124;52.198;9.902;2023-09-08T01:36:23;44.48;41.46;48.48;;
52872;Laerm;40124;52.198;9.902;2023-09-08T01:38:48;47.36;42.22;58.02;;
52872;Laerm;40124;52.198;9.902;2023-09-08T01:41:13;66.64;40.89;85.17;;
52872;Laerm;40124;52.198;9.902;2023-09-08T01:43:38;61.93;40.43;81.29;;
52872;Laerm;40124;52.198;9.902;2023-09-08T01:46:03;44.45;41.38;52.13;;
52872;Laerm;40124;52.198;9.902;2023-09-08T01:48:29;63.33;41.61;81.15;;
52872;Laerm;40124;52.198;9.902;2023-09-08T01:50:54;43.62;40.71;47.06;;
52872;Laerm;40124;52.198;9.902;2023-09-08T01:53:19;62.70;41.75;79.99;;
52872;Laerm;40124;52.198;9.902;2023-09-08T01:55:44;58.95;42.35;78.52;;
52872;Laerm;40124;52.198;9.902;2023-09-08T01:58:10;44.28;41.68;54.37;;
52872;Laerm;40124;52.198;9.902;2023-09-08T02:00:35;57.38;41.61;76.93;;
52872;Laerm;40124;52.198;9.902;2023-09-08T02:03:00;43.63;40.43;47.81;;
52872;Laerm;40124;52.198;9.902;2023-09-08T02:05:25;60.58;41.53;78.74;;
52872;Laerm;40124;52.198;9.902;2023-09-08T02:07:51;43.52;40.71;48.20;;
52872;Laerm;40124;52.198;9.902;2023-09-08T02:10:16;58.78;40.53;78.63;;
52872;Laerm;40124;52.198;9.902;2023-09-08T02:12:42;60.31;41.14;79.00;;
52872;Laerm;40124;52.198;9.902;2023-09-08T02:15:07;69.21;40.98;87.12;;
52872;Laerm;40124;52.198;9.902;2023-09-08T02:17:33;56.18;40.89;75.59;;
52872;Laerm;40124;52.198;9.902;2023-09-08T02:19:58;65.48;40.98;88.72;;
52872;Laerm;40124;52.198;9.902;2023-09-08T02:22:24;43.51;40.80;47.52;;
52872;Laerm;40124;52.198;9.902;2023-09-08T02:24:49;62.50;41.46;83.03;;
52872;Laerm;40124;52.198;9.902;2023-09-08T02:27:14;63.18;42.22;83.64;;
52872;Laerm;40124;52.198;9.902;2023-09-08T02:29:39;43.58;40.98;47.83;;
52872;Laerm;40124;52.198;9.902;2023-09-08T02:32:04;55.39;41.14;74.76;;
52872;Laerm;40124;52.198;9.902;2023-09-08T02:34:29;43.83;41.46;46.78;;
52872;Laerm;40124;52.198;9.902;2023-09-08T02:36:55;61.55;41.75;80.28;;
52872;Laerm;40124;52.198;9.902;2023-09-08T02:39:20;44.21;42.03;47.76;;
52872;Laerm;40124;52.198;9.902;2023-09-08T02:41:45;63.54;41.61;82.21;;
52872;Laerm;40124;52.198;9.902;2023-09-08T02:44:10;44.04;40.88;54.00;;
52872;Laerm;40124;52.198;9.902;2023-09-08T02:46:35;62.72;42.65;79.87;;
52872;Laerm;40124;52.198;9.902;2023-09-08T02:49:00;58.85;41.06;77.32;;
52872;Laerm;40124;52.198;9.902;2023-09-08T02:51:26;55.27;40.13;73.22;;
52872;Laerm;40124;52.198;9.902;2023-09-08T02:53:51;53.90;40.71;73.83;;
52872;Laerm;40124;52.198;9.902;2023-09-08T02:56:16;61.91;40.43;80.45;;
52872;Laerm;40124;52.198;9.902;2023-09-08T02:58:41;63.99;41.75;80.48;;
52872;Laerm;40124;52.198;9.902;2023-09-08T03:01:10;69.60;41.82;88.95;;
52872;Laerm;40124;52.198;9.902;2023-09-08T03:03:36;64.06;42.47;81.50;;
52872;Laerm;40124;52.198;9.902;2023-09-08T03:06:02;67.32;42.35;86.60;;
52872;Laerm;40124;52.198;9.902;2023-09-08T03:08:28;64.87;42.09;85.42;;
52872;Laerm;40124;52.198;9.902;2023-09-08T03:10:55;63.21;41.96;80.56;;
52872;Laerm;40124;52.198;9.902;2023-09-08T03:13:20;67.33;43.24;82.99;;
52872;Laerm;40124;52.198;9.902;2023-09-08T03:15:45;57.93;41.61;78.11;;
52872;Laerm;40124;52.198;9.902;2023-09-08T03:18:10;64.81;42.82;80.39;;
52872;Laerm;40124;52.198;9.902;2023-09-08T03:20:35;70.61;44.31;85.64;;
52872;Laerm;40124;52.198;9.902;2023-09-08T03:23:00;73.28;43.72;88.63;;
52872;Laerm;40124;52.198;9.902;2023-09-08T03:25:26;64.51;44.43;79.94;;
52872;Laerm;40124;52.198;9.902;2023-09-08T03:27:51;68.72;43.19;86.63;;
52872;Laerm;40124;52.198;9.902;2023-09-08T03:30:16;64.63;43.99;79.30;;
52872;Laerm;40124;52.198;9.902;2023-09-08T03:32:41;65.23;43.14;80.45;;
52872;Laerm;40124;52.198;9.902;2023-09-08T03:35:07;67.44;43.39;79.90;;
52872;Laerm;40124;52.198;9.902;2023-09-08T03:37:32;66.45;44.15;80.31;;
52872;Laerm;40124;52.198;9.902;2023-09-08T03:39:58;69.22;43.86;82.82;;
52872;Laerm;40124;52.198;9.902;2023-09-08T03:42:23;67.86;43.72;82.42;;
52872;Laerm;40124;52.198;9.902;2023-09-08T03:44:48;63.59;42.93;81.20;;
52872;Laerm;40124;52.198;9.902;2023-09-08T03:47:13;70.18;44.15;81.11;;
52872;Laerm;40124;52.198;9.902;2023-09-08T03:49:38;68.35;44.58;84.66;;
52872;Laerm;40124;52.198;9.902;2023-09-08T03:52:03;67.99;44.27;81.18;;
52872;Laerm;40124;52.198;9.902;2023-09-08T03:54:29;68.81;42.22;83.69;;
52872;Laerm;40124;52.198;9.902;2023-09-08T03:56:55;67.14;42.76;82.11;;
52872;Laerm;40124;52.198;9.902;2023-09-08T03:59:20;67.49;44.35;79.69;;
52872;Laerm;40124;52.198;9.902;2023-09-08T04:01:45;71.21;42.29;88.75;;
52872;Laerm;40124;52.198;9.902;2023-09-08T04:04:10;68.92;49.16;83.18;;
52872;Laerm;40124;52.198;9.902;2023-09-08T04:06:35;69.35;43.54;86.70;;
52872;Laerm;40124;52.198;9.902;2023-09-08T04:09:00;67.50;45.36;81.14;;
52872;Laerm;40124;52.198;9.902;2023-09-08T04:11:26;73.03;50.86;90.83;;
52872;Laerm;40124;52.198;9.902;2023-09-08T04:13:51;75.00;46.15;93.08;;
52872;Laerm;40124;52.198;9.902;2023-09-08T04:16:16;68.96;44.76;82.21;;
52872;Laerm;40124;52.198;9.902;2023-09-08T04:18:41;70.96;43.81;84.65;;
52872;Laerm;40124;52.198;9.902;2023-09-08T04:21:07;71.50;47.76;84.75;;
52872;Laerm;40124;52.198;9.902;2023-09-08T04:23:32;71.83;43.58;87.79;;
52872;Laerm;40124;52.198;9.902;2023-09-08T04:25:57;69.00;46.05;82.41;;
52872;Laerm;40124;52.198;9.902;2023-09-08T04:28:23;69.40;44.97;86.35;;
52872;Laerm;40124;52.198;9.902;2023-09-08T04:30:48;69.32;46.13;81.04;;
52872;Laerm;40124;52.198;9.902;2023-09-08T04:33:13;69.41;47.02;83.10;;
52872;Laerm;40124;52.198;9.902;2023-09-08T04:35:38;67.86;45.04;82.56;;
52872;Laerm;40124;52.198;9.902;2023-09-08T04:38:03;68.85;46.69;85.42;;
52872;Laerm;40124;52.198;9.902;2023-09-08T04:40:29;68.99;45.57;81.56;;
52872;Laerm;40124;52.198;9.902;2023-09-08T04:42:54;71.54;47.67;84.74;;
52872;Laerm;40124;52.198;9.902;2023-09-08T04:45:19;74.02;47.08;88.26;;
52872;Laerm;40124;52.198;9.902;2023-09-08T04:47:44;71.04;53.65;83.51;;
52872;Laerm;40124;52.198;9.902;2023-09-08T04:50:11;71.94;47.02;91.24;;
52872;Laerm;40124;52.198;9.902;2023-09-08T04:52:36;70.01;46.06;85.45;;
52872;Laerm;40124;52.198;9.902;2023-09-08T04:55:02;71.92;46.15;86.72;;
52872;Laerm;40124;52.198;9.902;2023-09-08T04:57:27;73.03;48.87;94.63;;
52872;Laerm;40124;52.198;9.902;2023-09-08T04:59:53;71.20;48.57;82.39;;
52872;Laerm;40124;52.198;9.902;2023-09-08T05:02:19;71.72;44.54;82.03;;
52872;Laerm;40124;52.198;9.902;2023-09-08T05:04:44;72.10;47.20;88.89;;
52872;Laerm;40124;52.198;9.902;2023-09-08T05:07:09;71.75;47.28;84.26;;
52872;Laerm;40124;52.198;9.902;2023-09-08T05:09:35;72.44;45.48;87.73;;
52872;Laerm;40124;52.198;9.902;2023-09-08T05:12:00;72.47;44.62;85.70;;
52872;Laerm;40124;52.198;9.902;2023-09-08T05:14:25;73.15;48.10;88.14;;
52872;Laerm;40124;52.198;9.902;2023-09-08T05:16:50;72.73;45.27;85.30;;
52872;Laerm;40124;52.198;9.902;2023-09-08T05:19:20;72.01;52.76;84.05;;
52872;Laerm;40124;52.198;9.902;2023-09-08T05:21:45;74.98;55.44;89.88;;
52872;Laerm;40124;52.198;9.902;2023-09-08T05:24:11;72.43;44.69;88.22;;
52872;Laerm;40124;52.198;9.902;2023-09-08T05:26:36;72.86;51.91;87.63;;
52872;Laerm;40124;52.198;9.902;2023-09-08T05:29:02;73.13;52.04;87.44;;
52872;Laerm;40124;52.198;9.902;2023-09-08T05:31:27;73.88;50.95;90.73;;
52872;Laerm;40124;52.198;9.902;2023-09-08T05:33:53;72.94;48.84;87.38;;
52872;Laerm;40124;52.198;9.902;2023-09-08T05:36:18;72.27;46.87;84.80;;
52872;Laerm;40124;52.198;9.902;2023-09-08T05:38:43;73.36;50.46;86.02;;
52872;Laerm;40124;52.198;9.902;2023-09-08T05:41:08;72.82;53.76;84.78;;
52872;Laerm;40124;52.198;9.902;2023-09-08T05:43:34;72.35;48.00;87.42;;
52872;Laerm;40124;52.198;9.902;2023-09-08T05:46:00;73.31;50.21;83.99;;
52872;Laerm;40124;52.198;9.902;2023-09-08T05:48:25;75.54;48.85;95.32;;
52872;Laerm;40124;52.198;9.902;2023-09-08T05:50:50;73.14;53.06;87.49;;
52872;Laerm;40124;52.198;9.902;2023-09-08T05:53:15;73.85;47.12;89.96;;
52872;Laerm;40124;52.198;9.902;2023-09-08T05:55:40;71.02;44.62;85.90;;
52872;Laerm;40124;52.198;9.902;2023-09-08T05:58:05;72.92;50.12;89.49;;
52872;Laerm;40124;52.198;9.902;2023-09-08T06:00:32;73.70;55.79;87.02;;
52872;Laerm;40124;52.198;9.902;2023-09-08T06:02:57;72.30;44.90;88.86;;
52872;Laerm;40124;52.198;9.902;2023-09-08T06:05:22;71.82;48.92;83.92;;
52872;Laerm;40124;52.198;9.902;2023-09-08T06:07:47;68.30;45.01;81.26;;
52872;Laerm;40124;52.198;9.902;2023-09-08T06:10:13;73.83;50.45;87.54;;
52872;Laerm;40124;52.198;9.902;2023-09-08T06:12:39;72.31;46.64;83.61;;
52872;Laerm;40124;52.198;9.902;2023-09-08T06:15:04;68.45;47.65;79.65;;
52872;Laerm;40124;52.198;9.902;2023-09-08T06:17:29;73.34;44.90;90.31;;
52872;Laerm;40124;52.198;9.902;2023-09-08T06:19:55;73.38;48.02;87.86;;
52872;Laerm;40124;52.198;9.902;2023-09-08T06:22:20;72.50;47.79;85.92;;
52872;Laerm;40124;52.198;9.902;2023-09-08T06:24:45;69.46;47.84;83.47;;
52872;Laerm;40124;52.198;9.902;2023-09-08T06:27:10;71.03;45.60;89.80;;
52872;Laerm;40124;52.198;9.902;2023-09-08T06:29:36;71.49;52.18;84.76;;
52872;Laerm;40124;52.198;9.902;2023-09-08T06:32:01;72.46;46.80;85.76;;
52872;Laerm;40124;52.198;9.902;2023-09-08T06:34:27;76.22;50.76;99.37;;
52872;Laerm;40124;52.198;9.902;2023-09-08T06:36:52;71.93;47.28;88.67;;
52872;Laerm;40124;52.198;9.902;2023-09-08T06:39:17;70.24;45.07;85.21;;
52872;Laerm;40124;52.198;9.902;2023-09-08T06:41:42;72.10;47.81;87.17;;
52872;Laerm;40124;52.198;9.902;2023-09-08T06:44:07;71.67;47.08;85.37;;
52872;Laerm;40124;52.198;9.902;2023-09-08T06:46:32;71.87;46.84;88.40;;
52872;Laerm;40124;52.198;9.902;2023-09-08T06:48:58;70.89;47.59;87.55;;
52872;Laerm;40124;52.198;9.902;2023-09-08T06:51:23;74.30;49.82;90.99;;
52872;Laerm;40124;52.198;9.902;2023-09-08T06:53:57;70.64;49.00;85.04;;
52872;Laerm;40124;52.198;9.902;2023-09-08T06:56:24;70.15;47.06;86.71;;
52872;Laerm;40124;52.198;9.902;2023-09-08T06:58:50;72.95;50.08;90.23;;
52872;Laerm;40124;52.198;9.902;2023-09-08T07:01:15;70.70;43.63;88.39;;
52872;Laerm;40124;52.198;9.902;2023-09-08T07:03:40;71.85;49.82;88.78;;
52872;Laerm;40124;52.198;9.902;2023-09-08T07:06:05;72.66;45.45;86.80;;
52872;Laerm;40124;52.198;9.902;2023-09-08T07:08:30;72.67;46.73;88.77;;
52872;Laerm;40124;52.198;9.902;2023-09-08T07:10:56;72.20;47.42;90.55;;
52872;Laerm;40124;52.198;9.902;2023-09-08T07:13:21;69.06;51.33;81.11;;
52872;Laerm;40124;52.198;9.902;2023-09-08T07:15:46;65.70;47.81;78.41;;
52872;Laerm;40124;52.198;9.902;2023-09-08T07:18:11;70.63;48.74;86.07;;
52872;Laerm;40124;52.198;9.902;2023-09-08T07:20:36;69.98;48.13;83.81;;
52872;Laerm;40124;52.198;9.902;2023-09-08T07:23:01;71.08;44.65;86.91;;
52872;Laerm;40124;52.198;9.902;2023-09-08T07:25:27;67.59;44.69;79.60;;
52872;Laerm;40124;52.198;9.902;2023-09-08T07:27:52;68.87;43.34;83.73;;
52872;Laerm;40124;52.198;9.902;2023-09-08T07:30:18;73.98;53.21;88.63;;
52872;Laerm;40124;52.198;9.902;2023-09-08T07:32:43;70.18;45.94;84.23;;
52872;Laerm;40124;52.198;9.902;2023-09-08T07:35:09;72.11;49.52;88.75;;
52872;Laerm;40124;52.198;9.902;2023-09-08T07:37:39;70.00;44.51;85.80;;
52872;Laerm;40124;52.198;9.902;2023-09-08T07:40:04;69.66;44.90;84.83;;
52872;Laerm;40124;52.198;9.902;2023-09-08T07:42:30;68.86;43.19;86.68;;
52872;Laerm;40124;52.198;9.902;2023-09-08T07:44:55;72.95;53.24;86.92;;
52872;Laerm;40124;52.198;9.902;2023-09-08T07:47:20;71.32;53.66;89.31;;
52872;Laerm;40124;52.198;9.902;2023-09-08T07:49:46;68.24;44.15;84.69;;
52872;Laerm;40124;52.198;9.902;2023-09-08T07:52:12;67.40;46.10;82.08;;
52872;Laerm;40124;52.198;9.902;2023-09-08T07:54:37;72.89;48.88;86.38;;
52872;Laerm;40124;52.198;9.902;2023-09-08T07:57:02;71.53;45.77;88.52;;
52872;Laerm;40124;52.198;9.902;2023-09-08T07:59:28;73.18;48.67;87.14;;
52872;Laerm;40124;52.198;9.902;2023-09-08T08:01:53;69.09;45.17;81.00;;
52872;Laerm;40124;52.198;9.902;2023-09-08T08:04:18;72.24;48.74;88.38;;
52872;Laerm;40124;52.198;9.902;2023-09-08T08:06:43;70.66;45.63;84.75;;
52872;Laerm;40124;52.198;9.902;2023-09-08T08:09:09;70.02;44.66;86.40;;
52872;Laerm;40124;52.198;9.902;2023-09-08T08:11:35;68.11;47.48;80.20;;
52872;Laerm;40124;52.198;9.902;2023-09-08T08:14:00;69.27;48.61;86.18;;
52872;Laerm;40124;52.198;9.902;2023-09-08T08:16:26;67.10;43.29;80.83;;
52872;Laerm;40124;52.198;9.902;2023-09-08T08:18:51;71.57;47.30;86.79;;
52872;Laerm;40124;52.198;9.902;2023-09-08T08:21:16;72.27;48.42;87.51;;
52872;Laerm;40124;52.198;9.902;2023-09-08T08:23:41;71.62;48.73;86.63;;
52872;Laerm;40124;52.198;9.902;2023-09-08T08:26:06;67.35;46.23;82.76;;
52872;Laerm;40124;52.198;9.902;2023-09-08T08:28:32;70.86;44.19;87.90;;
52872;Laerm;40124;52.198;9.902;2023-09-08T08:30:57;71.13;44.43;85.84;;
52872;Laerm;40124;52.198;9.902;2023-09-08T08:33:22;66.37;43.72;77.52;;
52872;Laerm;40124;52.198;9.902;2023-09-08T08:35:48;71.67;49.78;85.25;;
52872;Laerm;40124;52.198;9.902;2023-09-08T08:38:13;67.20;45.45;78.76;;
52872;Laerm;40124;52.198;9.902;2023-09-08T08:40:38;74.62;46.62;92.29;;
52872;Laerm;40124;52.198;9.902;2023-09-08T08:43:04;68.75;50.04;80.81;;
52872;Laerm;40124;52.198;9.902;2023-09-08T08:45:29;70.70;47.98;82.61;;
52872;Laerm;40124;52.198;9.902;2023-09-08T08:47:55;70.66;45.45;84.23;;
52872;Laerm;40124;52.198;9.902;2023-09-08T08:50:21;72.20;48.16;87.80;;
52872;Laerm;40124;52.198;9.902;2023-09-08T08:52:46;67.58;47.54;79.07;;
52872;Laerm;40124;52.198;9.902;2023-09-08T08:55:12;71.98;51.89;85.22;;
52872;Laerm;40124;52.198;9.902;2023-09-08T08:57:39;66.17;42.53;79.02;;
52872;Laerm;40124;52.198;9.902;2023-09-08T09:00:08;68.53;43.04;89.68;;
52872;Laerm;40124;52.198;9.902;2023-09-08T09:02:35;72.37;53.05;89.09;;
52872;Laerm;40124;52.198;9.902;2023-09-08T09:05:01;67.99;45.69;82.42;;
52872;Laerm;40124;52.198;9.902;2023-09-08T09:07:26;71.42;53.03;86.81;;
52872;Laerm;40124;52.198;9.902;2023-09-08T09:09:52;68.50;43.99;80.31;;
52872;Laerm;40124;52.198;9.902;2023-09-08T09:12:17;72.42;45.01;86.23;;
52872;Laerm;40124;52.198;9.902;2023-09-08T09:14:46;68.47;45.94;79.23;;
52872;Laerm;40124;52.198;9.902;2023-09-08T09:17:13;77.95;44.27;102.82;;
52872;Laerm;40124;52.198;9.902;2023-09-08T09:19:38;70.05;51.56;79.89;;
52872;Laerm;40124;52.198;9.902;2023-09-08T09:22:03;69.29;42.59;86.73;;
52872;Laerm;40124;52.198;9.902;2023-09-08T09:24:32;74.83;44.83;95.08;;
52872;Laerm;40124;52.198;9.902;2023-09-08T09:27:01;71.38;47.40;85.07;;
52872;Laerm;40124;52.198;9.902;2023-09-08T09:29:27;69.90;39.46;87.57;;
52872;Laerm;40124;52.198;9.902;2023-09-08T09:31:53;69.97;40.13;86.38;;
52872;Laerm;40124;52.198;9.902;2023-09-08T09:34:19;73.05;47.39;87.53;;
52872;Laerm;40124;52.198;9.902;2023-09-08T09:36:45;67.70;46.10;78.21;;
52872;Laerm;40124;52.198;9.902;2023-09-08T09:39:11;67.83;44.47;84.48;;
52872;Laerm;40124;52.198;9.902;2023-09-08T09:41:36;66.51;41.96;82.70;;
52872;Laerm;40124;52.198;9.902;2023-09-08T09:44:01;73.71;47.67;88.72;;
52872;Laerm;40124;52.198;9.902;2023-09-08T09:46:29;69.63;47.36;84.23;;
52872;Laerm;40124;52.198;9.902;2023-09-08T09:48:54;70.62;45.07;85.76;;
52872;Laerm;40124;52.198;9.902;2023-09-08T09:51:21;69.66;42.59;81.48;;
52872;Laerm;40124;52.198;9.902;2023-09-08T09:53:47;71.81;46.95;88.09;;
52872;Laerm;40124;52.198;9.902;2023-09-08T09:56:14;70.10;45.75;85.64;;
52872;Laerm;40124;52.198;9.902;2023-09-08T09:58:40;72.43;46.97;88.39;;
52872;Laerm;40124;52.198;9.902;2023-09-08T10:01:05;68.74;42.65;87.37;;
52872;Laerm;40124;52.198;9.902;2023-09-08T10:03:31;69.94;44.87;85.32;;
52872;Laerm;40124;52.198;9.902;2023-09-08T10:05:57;72.46;46.50;86.48;;
52872;Laerm;40124;52.198;9.902;2023-09-08T10:08:23;67.38;44.19;79.18;;
52872;Laerm;40124;52.198;9.902;2023-09-08T10:10:48;71.50;47.81;84.48;;
52872;Laerm;40124;52.198;9.902;2023-09-08T10:13:16;72.59;44.62;86.94;;
52872;Laerm;40124;52.198;9.902;2023-09-08T10:15:43;71.38;47.57;86.31;;
52872;Laerm;40124;52.198;9.902;2023-09-08T10:18:09;68.59;43.24;84.64;;
52872;Laerm;40124;52.198;9.902;2023-09-08T10:20:36;68.58;47.48;80.72;;
52872;Laerm;40124;52.198;9.902;2023-09-08T10:23:12;69.71;43.68;85.54;;
52872;Laerm;40124;52.198;9.902;2023-09-08T10:25:43;69.57;40.71;87.14;;
52872;Laerm;40124;52.198;9.902;2023-09-08T10:28:09;68.91;44.87;84.73;;
52872;Laerm;40124;52.198;9.902;2023-09-08T10:30:34;71.07;48.91;84.94;;
52872;Laerm;40124;52.198;9.902;2023-09-08T10:33:00;67.96;46.38;81.79;;
52872;Laerm;40124;52.198;9.902;2023-09-08T10:35:26;69.72;49.24;80.90;;
52872;Laerm;40124;52.198;9.902;2023-09-08T10:37:52;71.86;47.08;87.31;;
52872;Laerm;40124;52.198;9.902;2023-09-08T10:40:36;69.19;41.06;82.35;;
52872;Laerm;40124;52.198;9.902;2023-09-08T10:43:06;70.31;43.39;85.50;;
52872;Laerm;40124;52.198;9.902;2023-09-08T10:45:31;71.14;47.68;87.24;;
52872;Laerm;40124;52.198;9.902;2023-09-08T10:47:56;71.59;44.03;84.17;;
52872;Laerm;40124;52.198;9.902;2023-09-08T10:50:26;70.67;51.00;84.54;;
52872;Laerm;40124;52.198;9.902;2023-09-08T10:55:36;68.28;46.30;82.90;;
52872;Laerm;40124;52.198;9.902;2023-09-08T10:58:03;70.48;46.02;82.53;;
52872;Laerm;40124;52.198;9.902;2023-09-08T11:00:28;74.45;45.63;92.88;;
52872;Laerm;40124;52.198;9.902;2023-09-08T11:03:07;70.82;44.39;84.25;;
52872;Laerm;40124;52.198;9.902;2023-09-08T11:05:32;71.63;48.58;85.42;;
52872;Laerm;40124;52.198;9.902;2023-09-08T11:07:58;69.16;44.69;80.72;;
52872;Laerm;40124;52.198;9.902;2023-09-08T11:10:24;71.42;54.64;84.98;;
52872;Laerm;40124;52.198;9.902;2023-09-08T11:12:49;70.19;42.59;80.25;;
52872;Laerm;40124;52.198;9.902;2023-09-08T11:15:16;73.63;50.91;91.35;;
52872;Laerm;40124;52.198;9.902;2023-09-08T11:17:41;70.61;46.62;82.53;;
52872;Laerm;40124;52.198;9.902;2023-09-08T11:20:07;72.43;49.21;88.47;;
52872;Laerm;40124;52.198;9.902;2023-09-08T11:22:34;70.67;48.07;84.66;;
52872;Laerm;40124;52.198;9.902;2023-09-08T11:25:00;72.20;48.96;88.94;;
52872;Laerm;40124;52.198;9.902;2023-09-08T11:27:25;68.87;44.43;79.98;;
52872;Laerm;40124;52.198;9.902;2023-09-08T11:29:51;71.20;49.64;85.51;;
52872;Laerm;40124;52.198;9.902;2023-09-08T11:32:17;72.33;48.05;87.84;;
52872;Laerm;40124;52.198;9.902;2023-09-08T11:34:42;70.67;44.47;88.55;;
52872;Laerm;40124;52.198;9.902;2023-09-08T11:37:11;74.56;50.56;90.45;;
52872;Laerm;40124;52.198;9.902;2023-09-08T11:39:38;70.41;44.51;82.65;;
52872;Laerm;40124;52.198;9.902;2023-09-08T11:42:03;70.20;45.42;87.35;;
52872;Laerm;40124;52.198;9.902;2023-09-08T11:44:29;71.63;52.44;84.09;;
52872;Laerm;40124;52.198;9.902;2023-09-08T11:46:54;74.16;48.48;86.22;;
52872;Laerm;40124;52.198;9.902;2023-09-08T11:49:22;70.68;44.90;85.28;;
52872;Laerm;40124;52.198;9.902;2023-09-08T11:51:48;72.89;42.82;89.09;;
52872;Laerm;40124;52.198;9.902;2023-09-08T11:54:14;72.47;52.44;88.88;;
52872;Laerm;40124;52.198;9.902;2023-09-08T11:56:39;73.62;45.01;88.44;;
52872;Laerm;40124;52.198;9.902;2023-09-08T11:59:05;70.51;43.54;84.24;;
52872;Laerm;40124;52.198;9.902;2023-09-08T12:01:30;71.55;50.23;84.72;;
52872;Laerm;40124;52.198;9.902;2023-09-08T12:03:56;71.09;42.35;86.73;;
52872;Laerm;40124;52.198;9.902;2023-09-08T12:06:23;71.35;48.78;87.75;;
52872;Laerm;40124;52.198;9.902;2023-09-08T12:08:49;70.13;47.70;80.35;;
52872;Laerm;40124;52.198;9.902;2023-09-08T12:11:14;70.24;50.17;82.70;;
52872;Laerm;40124;52.198;9.902;2023-09-08T12:13:39;71.57;51.05;83.32;;
52872;Laerm;40124;52.198;9.902;2023-09-08T12:16:17;70.76;48.05;81.34;;
52872;Laerm;40124;52.198;9.902;2023-09-08T12:18:42;71.83;53.06;86.55;;
52872;Laerm;40124;52.198;9.902;2023-09-08T12:21:10;71.08;51.11;80.74;;
52872;Laerm;40124;52.198;9.902;2023-09-08T12:23:35;72.14;51.38;85.14;;
52872;Laerm;40124;52.198;9.902;2023-09-08T12:26:11;70.06;45.60;81.30;;
52872;Laerm;40124;52.198;9.902;2023-09-08T12:28:36;71.54;52.66;84.99;;
52872;Laerm;40124;52.198;9.902;2023-09-08T12:31:02;70.73;47.43;84.41;;
52872;Laerm;40124;52.198;9.902;2023-09-08T12:33:27;70.27;47.52;79.73;;
52872;Laerm;40124;52.198;9.902;2023-09-08T12:35:53;69.36;43.90;80.03;;
52872;Laerm;40124;52.198;9.902;2023-09-08T12:38:18;69.65;45.33;85.35;;
52872;Laerm;40124;52.198;9.902;2023-09-08T12:40:44;70.55;43.90;82.54;;
52872;Laerm;40124;52.198;9.902;2023-09-08T12:43:09;71.12;52.74;81.70;;
52872;Laerm;40124;52.198;9.902;2023-09-08T12:45:34;72.04;51.44;82.67;;
52872;Laerm;40124;52.198;9.902;2023-09-08T12:48:01;69.38;48.18;80.55;;
52872;Laerm;40124;52.198;9.902;2023-09-08T12:50:27;71.40;48.69;83.91;;
52872;Laerm;40124;52.198;9.902;2023-09-08T12:52:52;70.09;53.60;78.86;;
52872;Laerm;40124;52.198;9.902;2023-09-08T12:55:18;71.29;53.16;82.65;;
52872;Laerm;40124;52.198;9.902;2023-09-08T12:57:43;71.47;46.82;85.85;;
52872;Laerm;40124;52.198;9.902;2023-09-08T13:00:08;70.52;48.13;80.49;;
52872;Laerm;40124;52.198;9.902;2023-09-08T13:02:34;70.79;52.81;80.61;;
52872;Laerm;40124;52.198;9.902;2023-09-08T13:04:59;70.82;45.54;81.97;;
52872;Laerm;40124;52.198;9.902;2023-09-08T13:07:25;71.79;44.83;88.58;;
52872;Laerm;40124;52.198;9.902;2023-09-08T13:09:51;67.21;41.96;78.05;;
52872;Laerm;40124;52.198;9.902;2023-09-08T13:12:16;72.39;45.72;87.71;;
52872;Laerm;40124;52.198;9.902;2023-09-08T13:14:41;70.37;46.91;79.77;;
52872;Laerm;40124;52.198;9.902;2023-09-08T13:17:08;68.45;46.30;82.08;;
52872;Laerm;40124;52.198;9.902;2023-09-08T13:19:33;70.37;44.65;84.08;;
52872;Laerm;40124;52.198;9.902;2023-09-08T13:21:58;71.74;45.30;86.10;;
52872;Laerm;40124;52.198;9.902;2023-09-08T13:24:23;70.74;46.02;83.49;;
52872;Laerm;40124;52.198;9.902;2023-09-08T13:26:49;69.99;47.22;80.09;;
52872;Laerm;40124;52.198;9.902;2023-09-08T13:29:15;70.51;43.39;80.87;;
52872;Laerm;40124;52.198;9.902;2023-09-08T13:31:40;69.89;45.65;79.98;;
52872;Laerm;40124;52.198;9.902;2023-09-08T13:34:05;68.76;46.23;83.87;;
52872;Laerm;40124;52.198;9.902;2023-09-08T13:36:31;70.02;41.75;85.43;;
52872;Laerm;40124;52.198;9.902;2023-09-08T13:38:56;70.25;50.55;82.60;;
52872;Laerm;40124;52.198;9.902;2023-09-08T13:41:21;71.67;45.01;89.32;;